Time;durP1;ratioP1;P1;durP2;ratioP2;P2;SDS_P1;SDS_P2;PMS_P1;PMS_P2;Temp;Humidity;BMP_temperature;BMP_pressure;BME280_temperature;BME280_humidity;BME280_pressure;Samples;Min_cycle;Max_cycle;Signal;HPM_P1;HPM_P2
2021/07/24 14:21:22;;;;;;;9.80;4.90;;;24.20;99.90;;;;;;5427396;22;18697191;-75
2021/07/24 14:23:50;;;;;;;6.65;4.40;;;24.10;99.90;;;;;;6213711;23;20498;-76
2021/07/24 14:26:17;;;;;;;6.15;4.07;;;24.10;99.90;;;;;;6215359;23;20176;-78
2021/07/24 14:28:44;;;;;;;9.82;4.57;;;24.20;99.90;;;;;;6241136;23;20195;-78
2021/07/24 14:31:11;;;;;;;7.78;4.07;;;24.40;99.90;;;;;;6246708;23;20182;-77
2021/07/24 14:33:38;;;;;;;10.15;4.70;;;24.80;99.90;;;;;;6245816;23;20184;-77
2021/07/24 14:36:07;;;;;;;6.07;4.32;;;25.20;99.90;;;;;;6245863;23;20175;-77
2021/07/24 14:38:35;;;;;;;7.47;4.68;;;25.50;99.90;;;;;;6246054;22;20523;-78
2021/07/24 14:41:04;;;;;;;9.77;4.65;;;25.50;99.90;;;;;;6246291;23;20176;-78
2021/07/24 14:43:31;;;;;;;6.72;4.28;;;25.30;99.90;;;;;;6245755;23;20666;-76
2021/07/24 14:45:58;;;;;;;7.35;4.60;;;25.20;99.90;;;;;;6246538;23;20179;-78
2021/07/24 14:48:25;;;;;;;8.95;4.13;;;24.80;99.90;;;;;;6246528;22;20195;-78
2021/07/24 14:50:52;;;;;;;6.35;4.03;;;24.50;99.90;;;;;;6246430;23;20182;-77
2021/07/24 14:53:19;;;;;;;8.98;4.65;;;24.40;99.90;;;;;;6245749;23;20642;-77
2021/07/24 14:55:50;;;;;;;9.65;4.90;;;24.70;99.90;;;;;;6246129;23;20198;-78
2021/07/24 14:58:17;;;;;;;6.25;4.18;;;24.80;99.90;;;;;;6246163;22;20199;-78
2021/07/24 15:00:44;;;;;;;8.55;4.38;;;24.90;99.90;;;;;;6246343;23;20182;-77
2021/07/24 15:03:11;;;;;;;7.28;4.00;;;25.00;99.90;;;;;;6246363;23;20203;-79
2021/07/24 15:05:37;;;;;;;6.55;3.85;;;25.00;99.90;;;;;;6246334;23;20175;-78
2021/07/24 15:08:04;;;;;;;6.47;4.15;;;25.00;99.90;;;;;;6245968;22;20206;-79
2021/07/24 15:10:31;;;;;;;6.85;3.63;;;25.00;99.90;;;;;;6245954;23;20175;-78
2021/07/24 15:13:00;;;;;;;8.30;4.10;;;25.00;99.90;;;;;;6245728;23;20186;-78
2021/07/24 15:15:27;;;;;;;5.28;3.53;;;25.00;99.90;;;;;;6246162;23;20179;-77
2021/07/24 15:17:53;;;;;;;8.02;4.43;;;25.10;99.90;;;;;;6246181;22;20196;-77
2021/07/24 15:20:20;;;;;;;5.85;3.80;;;25.10;99.90;;;;;;6246005;22;20488;-78
2021/07/24 15:22:47;;;;;;;6.47;3.50;;;25.30;99.90;;;;;;6245806;23;20207;-78
2021/07/24 15:25:14;;;;;;;6.20;3.75;;;25.40;99.90;;;;;;6245712;23;20179;-77
2021/07/24 15:27:40;;;;;;;6.03;3.42;;;25.50;99.90;;;;;;6246027;22;20196;-78
2021/07/24 15:30:10;;;;;;;7.85;4.22;;;25.40;99.90;;;;;;6247523;23;20179;-78
2021/07/24 15:32:36;;;;;;;6.40;3.90;;;25.40;99.90;;;;;;6248010;23;20183;-78
2021/07/24 15:35:05;;;;;;;6.07;3.50;;;25.60;99.90;;;;;;6247866;23;20622;-76
2021/07/24 15:37:32;;;;;;;5.18;3.53;;;25.40;99.90;;;;;;6247531;22;20740;-77
2021/07/24 15:40:01;;;;;;;4.88;3.17;;;25.40;99.90;;;;;;6248610;23;20179;-77
2021/07/24 15:42:28;;;;;;;6.93;3.70;;;25.30;99.90;;;;;;6247925;23;20207;-77
2021/07/24 15:44:54;;;;;;;6.53;3.55;;;25.20;99.90;;;;;;6247548;23;20179;-77
2021/07/24 15:47:22;;;;;;;5.55;3.47;;;25.20;99.90;;;;;;6247913;22;20199;-77
2021/07/24 15:49:49;;;;;;;6.15;3.42;;;25.20;99.90;;;;;;6247618;23;20716;-78
2021/07/24 15:52:16;;;;;;;5.68;3.50;;;25.10;99.90;;;;;;6247468;23;20653;-77
2021/07/24 15:54:43;;;;;;;7.88;3.42;;;24.70;99.90;;;;;;6247996;23;20179;-77
2021/07/24 15:57:11;;;;;;;5.20;3.15;;;24.50;99.90;;;;;;6247488;22;20199;-77
2021/07/24 15:59:38;;;;;;;6.45;4.03;;;24.50;99.90;;;;;;6247564;23;20218;-78
2021/07/24 16:02:05;;;;;;;5.15;3.60;;;24.40;99.90;;;;;;6247651;23;20210;-77
2021/07/24 16:04:33;;;;;;;6.28;3.58;;;24.50;99.90;;;;;;6246840;23;20176;-78
2021/07/24 16:06:59;;;;;;;4.13;2.88;;;24.40;99.90;;;;;;6247017;22;20175;-78
2021/07/24 16:09:26;;;;;;;7.13;3.50;;;24.20;99.90;;;;;;6247445;23;20182;-77
2021/07/24 16:11:53;;;;;;;7.40;3.45;;;24.30;99.90;;;;;;6247855;23;20175;-77
2021/07/24 16:14:20;;;;;;;5.10;3.33;;;24.50;99.90;;;;;;6247743;23;20184;-77
2021/07/24 16:16:47;;;;;;;5.68;3.38;;;24.60;99.90;;;;;;6247527;22;20197;-78
2021/07/24 16:19:13;;;;;;;7.20;3.10;;;24.20;99.90;;;;;;6247707;23;20176;-77
2021/07/24 16:21:41;;;;;;;5.68;3.65;;;24.00;99.90;;;;;;6247388;22;20184;-78
2021/07/24 16:24:08;;;;;;;6.68;3.13;;;23.80;99.90;;;;;;6247799;23;20214;-77
2021/07/24 16:26:35;;;;;;;7.43;3.80;;;23.60;99.90;;;;;;6247571;23;20505;-77
2021/07/24 16:29:02;;;;;;;7.07;3.80;;;23.60;99.90;;;;;;6247722;22;20195;-78
2021/07/24 16:31:28;;;;;;;8.43;4.20;;;23.60;99.90;;;;;;6248703;23;20180;-76
2021/07/24 16:33:55;;;;;;;6.45;3.42;;;23.70;99.90;;;;;;6248189;23;20176;-77
2021/07/24 16:36:22;;;;;;;5.20;3.95;;;23.70;99.90;;;;;;6247577;23;20182;-77
2021/07/24 16:38:50;;;;;;;7.80;4.22;;;23.40;99.90;;;;;;6247914;22;20218;-77
2021/07/24 16:41:17;;;;;;;6.45;4.18;;;23.10;99.90;;;;;;6247201;23;20176;-77
2021/07/24 16:43:45;;;;;;;9.43;4.10;;;22.70;99.90;;;;;;6247698;23;20211;-77
2021/07/24 16:46:11;;;;;;;5.30;3.20;;;22.40;99.90;;;;;;6247301;23;20179;-77
2021/07/24 16:48:38;;;;;;;5.43;3.83;;;22.30;99.90;;;;;;6247486;22;20196;-76
2021/07/24 16:51:06;;;;;;;6.75;3.75;;;22.20;99.90;;;;;;6247353;23;20182;-77
2021/07/24 16:53:33;;;;;;;6.93;4.18;;;22.10;99.90;;;;;;6247289;23;20191;-77
2021/07/24 16:56:02;;;;;;;6.25;4.13;;;22.00;99.90;;;;;;6247529;23;20176;-78
2021/07/24 16:58:29;;;;;;;7.32;4.20;;;22.00;99.90;;;;;;6246879;22;20713;-78
2021/07/24 17:00:56;;;;;;;8.65;4.07;;;22.10;99.90;;;;;;6247115;23;20183;-77
2021/07/24 17:03:22;;;;;;;6.55;4.38;;;22.20;99.90;;;;;;6247160;23;20208;-77
2021/07/24 17:05:49;;;;;;;6.20;4.18;;;22.20;99.90;;;;;;6247528;23;20182;-77
2021/07/24 17:08:16;;;;;;;8.77;4.57;;;22.10;99.90;;;;;;6247248;22;20206;-77
2021/07/24 17:10:43;;;;;;;7.93;4.00;;;22.10;99.90;;;;;;6247220;23;20202;-77
2021/07/24 17:13:11;;;;;;;7.25;4.47;;;22.20;99.90;;;;;;6247381;23;20233;-76
2021/07/24 17:15:41;;;;;;;8.85;4.75;;;22.00;99.90;;;;;;6247222;23;20176;-77
2021/07/24 17:18:07;;;;;;;9.27;4.90;;;21.70;99.90;;;;;;6247008;22;20650;-77
2021/07/24 17:20:34;;;;;;;7.50;4.53;;;21.70;99.90;;;;;;6247113;22;20183;-76
2021/07/24 17:23:01;;;;;;;6.75;4.10;;;21.70;99.90;;;;;;6247126;23;20214;-77
2021/07/24 17:25:28;;;;;;;6.95;4.78;;;21.70;99.90;;;;;;6247051;23;20182;-76
2021/07/24 17:27:55;;;;;;;6.43;4.55;;;21.70;99.90;;;;;;6246932;22;20196;-77
2021/07/24 17:30:23;;;;;;;8.07;4.65;;;21.50;99.90;;;;;;6247303;23;20182;-77
2021/07/24 17:32:50;;;;;;;9.32;4.93;;;21.50;99.90;;;;;;6247011;23;20183;-76
2021/07/24 17:35:17;;;;;;;8.18;4.60;;;21.30;99.90;;;;;;6246420;23;20179;-76
2021/07/24 17:37:44;;;;;;;9.32;5.10;;;21.10;99.90;;;;;;6246811;22;20195;-76
2021/07/24 17:40:13;;;;;;;8.35;4.93;;;20.90;99.90;;;;;;6246938;23;20180;-76
2021/07/24 17:42:40;;;;;;;8.43;4.82;;;20.70;99.90;;;;;;6246588;23;20728;-76
2021/07/24 17:45:07;;;;;;;8.48;4.82;;;20.50;99.90;;;;;;6246752;23;20182;-77
2021/07/24 17:47:35;;;;;;;9.82;5.03;;;20.50;99.90;;;;;;6246928;22;20218;-77
2021/07/24 17:50:02;;;;;;;9.00;4.55;;;20.40;99.90;;;;;;6247092;23;20176;-76
2021/07/24 17:52:29;;;;;;;11.07;5.32;;;20.40;99.90;;;;;;6246601;23;20176;-77
2021/07/24 17:54:55;;;;;;;11.55;4.13;;;20.30;99.90;;;;;;6246900;23;20182;-77
2021/07/24 17:57:22;;;;;;;7.38;3.20;;;20.10;99.90;;;;;;6246609;22;20199;-77
2021/07/24 17:59:49;;;;;;;3.73;2.50;;;20.00;99.90;;;;;;6246335;23;20502;-77
2021/07/24 18:02:16;;;;;;;3.40;1.60;;;19.70;99.90;;;;;;6246485;23;20175;-76
2021/07/24 18:04:44;;;;;;;3.07;1.40;;;19.50;99.90;;;;;;6246866;23;20203;-77
2021/07/24 18:07:10;;;;;;;1.30;0.70;;;19.20;99.90;;;;;;6246652;22;20219;-77
2021/07/24 18:09:37;;;;;;;1.80;0.70;;;18.90;99.90;;;;;;6246352;23;20180;-77
2021/07/24 18:12:05;;;;;;;4.30;0.83;;;18.50;99.90;;;;;;6246619;23;20182;-77
2021/07/24 18:14:32;;;;;;;2.27;0.90;;;18.20;99.90;;;;;;6246336;23;20184;-77
2021/07/24 18:16:59;;;;;;;4.03;0.80;;;18.10;99.90;;;;;;6246658;22;20175;-78
2021/07/24 18:19:25;;;;;;;1.37;0.83;;;18.00;99.90;;;;;;6246847;23;20190;-76
2021/07/24 18:21:53;;;;;;;1.17;0.83;;;17.90;99.90;;;;;;6246065;22;20190;-77
2021/07/24 18:24:20;;;;;;;1.47;0.87;;;18.00;99.90;;;;;;6246519;23;20207;-77
2021/07/24 18:26:47;;;;;;;2.03;1.07;;;18.10;99.90;;;;;;6246584;22;20180;-78
2021/07/24 18:29:14;;;;;;;1.30;0.70;;;18.10;99.90;;;;;;6246639;23;20199;-77
2021/07/24 18:31:40;;;;;;;2.83;1.00;;;18.00;99.90;;;;;;6246289;23;20190;-78
2021/07/24 18:34:07;;;;;;;2.10;0.90;;;17.90;99.90;;;;;;6246382;23;20183;-77
2021/07/24 18:36:34;;;;;;;1.53;0.90;;;17.90;99.90;;;;;;6246423;23;20184;-77
2021/07/24 18:39:02;;;;;;;2.63;1.07;;;17.90;99.90;;;;;;6246568;22;20210;-77
2021/07/24 18:41:30;;;;;;;1.87;1.00;;;18.00;99.90;;;;;;6245980;23;20186;-77
2021/07/24 18:43:57;;;;;;;1.33;0.90;;;18.10;99.90;;;;;;6245951;23;20290;-77
2021/07/24 18:46:25;;;;;;;3.67;1.10;;;18.10;99.90;;;;;;6246419;23;20182;-77
2021/07/24 18:48:52;;;;;;;2.00;0.80;;;18.10;99.90;;;;;;6245684;22;20563;-77
2021/07/24 18:51:19;;;;;;;2.53;1.40;;;18.10;99.90;;;;;;6245730;23;20179;-77
2021/07/24 18:53:46;;;;;;;2.87;1.30;;;18.10;99.90;;;;;;6245659;23;20660;-78
2021/07/24 18:56:14;;;;;;;1.83;1.33;;;18.30;99.90;;;;;;6245898;23;20179;-77
2021/07/24 18:58:41;;;;;;;1.53;0.90;;;18.30;99.90;;;;;;6246013;22;20202;-78
2021/07/24 19:01:13;;;;;;;3.53;0.93;;;18.30;99.90;;;;;;6246275;23;20176;-77
2021/07/24 19:03:40;;;;;;;1.67;0.80;;;18.30;99.90;;;;;;6245973;23;20250;-76
2021/07/24 19:06:08;;;;;;;2.53;1.30;;;18.40;99.90;;;;;;6246267;23;20186;-77
2021/07/24 19:08:35;;;;;;;1.30;0.87;;;18.40;99.90;;;;;;6245957;22;20202;-77
2021/07/24 19:11:02;;;;;;;2.10;0.97;;;18.40;99.90;;;;;;6246171;23;20176;-76
2021/07/24 19:13:30;;;;;;;2.40;0.80;;;18.30;99.90;;;;;;6245804;23;20176;-77
2021/07/24 19:15:57;;;;;;;2.20;0.87;;;18.40;99.90;;;;;;6246015;23;20181;-76
2021/07/24 19:18:24;;;;;;;2.20;0.80;;;18.30;99.90;;;;;;6246217;22;20199;-77
2021/07/24 19:20:51;;;;;;;1.30;0.80;;;18.30;99.90;;;;;;6245967;23;20525;-77
2021/07/24 19:23:17;;;;;;;3.33;0.70;;;18.30;99.90;;;;;;6245849;23;20337;-77
2021/07/24 19:25:44;;;;;;;1.90;1.00;;;18.30;99.90;;;;;;6246818;23;20198;-77
2021/07/24 19:28:11;;;;;;;1.67;0.90;;;18.30;99.90;;;;;;6246088;22;20195;-76
2021/07/24 19:30:39;;;;;;;2.17;1.17;;;18.30;99.90;;;;;;6245919;23;20198;-77
2021/07/24 19:33:06;;;;;;;3.30;1.00;;;18.30;99.90;;;;;;6246183;23;20176;-77
2021/07/24 19:35:32;;;;;;;3.23;0.87;;;18.30;99.90;;;;;;6245975;23;20186;-77
2021/07/24 19:37:59;;;;;;;3.90;1.60;;;18.30;99.90;;;;;;6245450;22;20195;-77
2021/07/24 19:40:26;;;;;;;3.00;1.20;;;18.40;99.90;;;;;;6245595;23;20183;-77
2021/07/24 19:42:53;;;;;;;1.90;1.10;;;18.60;99.90;;;;;;6246117;23;20183;-77
2021/07/24 19:45:19;;;;;;;2.10;1.00;;;18.60;99.90;;;;;;6245686;23;20664;-76
2021/07/24 19:47:47;;;;;;;2.83;1.27;;;18.70;99.90;;;;;;6245478;22;20716;-77
2021/07/24 19:50:14;;;;;;;2.30;1.10;;;18.60;99.90;;;;;;6245937;23;20175;-77
2021/07/24 19:52:41;;;;;;;3.87;0.97;;;18.50;99.90;;;;;;6245497;23;20175;-76
2021/07/24 19:55:09;;;;;;;1.67;1.00;;;18.60;99.90;;;;;;6246114;23;20179;-76
2021/07/24 19:57:35;;;;;;;1.57;0.70;;;18.60;99.90;;;;;;6245870;22;20202;-77
2021/07/24 20:00:03;;;;;;;1.67;0.80;;;18.50;99.90;;;;;;6245888;23;20176;-77
2021/07/24 20:02:29;;;;;;;2.60;0.87;;;18.50;99.90;;;;;;6245888;23;20176;-76
2021/07/24 20:04:57;;;;;;;3.77;1.53;;;18.40;99.90;;;;;;6245768;23;20212;-77
2021/07/24 20:07:24;;;;;;;2.30;1.10;;;18.40;99.90;;;;;;6245900;22;20196;-77
2021/07/24 20:09:51;;;;;;;4.47;1.10;;;18.50;99.90;;;;;;6246091;23;20494;-76
2021/07/24 20:12:18;;;;;;;1.20;0.80;;;18.50;99.90;;;;;;6245816;23;20182;-77
2021/07/24 20:14:45;;;;;;;1.87;1.10;;;18.50;99.90;;;;;;6246325;23;20549;-77
2021/07/24 20:17:12;;;;;;;1.57;0.90;;;18.60;99.90;;;;;;6248273;22;20190;-76
2021/07/24 20:19:39;;;;;;;1.67;0.90;;;18.60;99.90;;;;;;6247811;23;20210;-76
2021/07/24 20:22:07;;;;;;;1.30;0.83;;;18.60;99.90;;;;;;6247321;22;20183;-77
2021/07/24 20:24:34;;;;;;;1.90;1.10;;;18.50;99.90;;;;;;6247387;23;20214;-77
2021/07/24 20:27:01;;;;;;;1.37;1.00;;;18.60;99.90;;;;;;6247924;22;20176;-77
2021/07/24 20:29:28;;;;;;;1.60;1.00;;;18.50;99.90;;;;;;6247894;23;20182;-76
2021/07/24 20:31:55;;;;;;;2.00;0.97;;;18.60;99.90;;;;;;6247896;23;20213;-76
2021/07/24 20:34:21;;;;;;;1.50;0.90;;;18.60;99.90;;;;;;6247792;23;20182;-76
2021/07/24 20:36:48;;;;;;;2.10;1.20;;;18.60;99.90;;;;;;6247495;22;20180;-76
2021/07/24 20:39:16;;;;;;;2.23;0.80;;;18.60;99.90;;;;;;6247625;23;20176;-77
2021/07/24 20:41:43;;;;;;;4.67;1.20;;;18.70;99.90;;;;;;6247371;23;20267;-76
2021/07/24 20:44:10;;;;;;;2.00;1.07;;;18.70;99.90;;;;;;6247277;23;20692;-77
2021/07/24 20:46:37;;;;;;;2.80;1.40;;;18.70;99.90;;;;;;6247372;23;20664;-77
2021/07/24 20:49:03;;;;;;;1.97;1.13;;;18.70;99.90;;;;;;6247465;22;20200;-76
2021/07/24 20:51:30;;;;;;;3.50;1.20;;;18.70;99.90;;;;;;6247384;23;20198;-77
2021/07/24 20:53:57;;;;;;;4.47;1.20;;;18.60;99.90;;;;;;6246941;23;20183;-77
2021/07/24 20:56:25;;;;;;;3.27;1.00;;;18.60;99.90;;;;;;6247162;23;20179;-77
2021/07/24 20:58:52;;;;;;;2.87;1.10;;;18.60;99.90;;;;;;6247068;22;20704;-77
2021/07/24 21:01:20;;;;;;;2.20;1.40;;;18.60;99.90;;;;;;6247188;23;20187;-76
2021/07/24 21:03:46;;;;;;;1.77;1.13;;;18.50;99.90;;;;;;6247454;23;20282;-76
2021/07/24 21:06:20;;;;;;;3.73;1.37;;;18.40;99.90;;;;;;6247258;23;20182;-77
2021/07/24 21:08:47;;;;;;;1.40;1.00;;;18.40;99.90;;;;;;6247461;22;20200;-77
2021/07/24 21:11:13;;;;;;;1.63;1.10;;;18.40;99.90;;;;;;6247171;23;20270;-77
2021/07/24 21:13:42;;;;;;;1.87;1.20;;;18.40;99.90;;;;;;6247180;23;20176;-77
2021/07/24 21:16:15;;;;;;;4.17;1.40;;;18.40;99.90;;;;;;6246866;23;20186;-76
2021/07/24 21:18:42;;;;;;;1.70;1.10;;;18.30;99.90;;;;;;6247075;22;20202;-77
2021/07/24 21:21:11;;;;;;;3.67;1.27;;;18.40;99.90;;;;;;6245901;23;20188;-77
2021/07/24 21:23:38;;;;;;;3.50;1.17;;;18.30;99.90;;;;;;6246471;23;20176;-77
2021/07/24 21:26:04;;;;;;;2.57;1.33;;;18.40;99.90;;;;;;6246652;23;20176;-77
2021/07/24 21:28:31;;;;;;;1.70;1.27;;;18.50;99.90;;;;;;6246859;22;20195;-78
2021/07/24 21:31:00;;;;;;;2.00;1.30;;;18.50;99.90;;;;;;6246547;23;20221;-77
2021/07/24 21:33:27;;;;;;;2.22;1.30;;;18.30;99.90;;;;;;6246547;23;20176;-77
2021/07/24 21:35:54;;;;;;;3.00;2.20;;;18.40;99.90;;;;;;6246724;23;20176;-77
2021/07/24 21:38:20;;;;;;;2.63;1.53;;;18.40;99.90;;;;;;6246129;22;20704;-77
2021/07/24 21:40:47;;;;;;;1.60;1.30;;;18.30;99.90;;;;;;6246678;23;20185;-77
2021/07/24 21:43:14;;;;;;;1.70;1.30;;;18.30;99.90;;;;;;6246543;23;20182;-77
2021/07/24 21:45:41;;;;;;;2.63;1.60;;;18.30;99.90;;;;;;6246401;23;20670;-77
2021/07/24 21:48:17;;;;;;;1.73;1.40;;;18.30;99.90;;;;;;6246940;22;20201;-77
2021/07/24 21:50:47;;;;;;;2.53;1.47;;;18.20;99.90;;;;;;6246740;23;20176;-77
2021/07/24 21:53:14;;;;;;;2.17;1.33;;;18.30;99.90;;;;;;6245829;23;20653;-77
2021/07/24 21:55:41;;;;;;;2.30;1.30;;;18.30;99.90;;;;;;6246622;23;20179;-76
2021/07/24 21:58:07;;;;;;;2.10;1.40;;;18.30;99.90;;;;;;6246728;22;20286;-77
2021/07/24 22:00:35;;;;;;;1.80;1.33;;;18.30;99.90;;;;;;6246147;23;20175;-76
2021/07/24 22:03:02;;;;;;;2.00;1.40;;;18.20;99.90;;;;;;6245883;23;20638;-77
2021/07/24 22:05:30;;;;;;;1.67;1.10;;;18.10;99.90;;;;;;6246299;23;20207;-77
2021/07/24 22:07:57;;;;;;;3.10;1.40;;;18.10;99.90;;;;;;6246565;22;20195;-77
2021/07/24 22:10:23;;;;;;;1.80;1.10;;;18.10;99.90;;;;;;6246440;23;20333;-76
2021/07/24 22:12:50;;;;;;;2.77;1.40;;;18.10;99.90;;;;;;6246213;23;20183;-76
2021/07/24 22:15:17;;;;;;;1.60;1.00;;;18.10;99.90;;;;;;6246776;23;20186;-76
2021/07/24 22:17:44;;;;;;;2.50;1.03;;;18.10;99.90;;;;;;6245670;22;20222;-77
2021/07/24 22:20:12;;;;;;;2.03;1.27;;;18.10;99.90;;;;;;6245620;23;20182;-77
2021/07/24 22:22:41;;;;;;;4.23;1.50;;;18.20;99.90;;;;;;6245927;23;20254;-76
2021/07/24 22:25:09;;;;;;;1.77;1.30;;;18.10;99.90;;;;;;6248854;23;20199;-77
2021/07/24 22:27:36;;;;;;;1.80;1.20;;;18.20;99.90;;;;;;6246399;22;20278;-77
2021/07/24 22:30:05;;;;;;;2.27;1.40;;;18.20;99.90;;;;;;6246373;23;20476;-76
2021/07/24 22:32:33;;;;;;;2.20;1.03;;;18.20;99.90;;;;;;6245745;23;20198;-76
2021/07/24 22:34:59;;;;;;;2.10;1.30;;;18.30;99.90;;;;;;6246285;23;20269;-76
2021/07/24 22:37:27;;;;;;;2.33;1.20;;;18.30;99.90;;;;;;6246190;22;20202;-76
2021/07/24 22:39:55;;;;;;;2.20;1.33;;;18.40;99.90;;;;;;6246036;23;20179;-76
2021/07/24 22:42:22;;;;;;;2.93;1.20;;;18.30;99.90;;;;;;6245778;23;20176;-77
2021/07/24 22:44:49;;;;;;;2.37;1.27;;;18.30;99.90;;;;;;6246009;23;20203;-76
2021/07/24 22:47:17;;;;;;;1.73;1.20;;;18.30;99.90;;;;;;6245735;22;20199;-76
2021/07/24 22:49:44;;;;;;;2.33;1.20;;;18.40;99.90;;;;;;6245753;23;20186;-76
2021/07/24 22:52:12;;;;;;;2.10;1.50;;;18.50;99.90;;;;;;6246173;23;20175;-77
2021/07/24 22:54:39;;;;;;;2.70;1.53;;;18.50;99.90;;;;;;6246042;23;20179;-76
2021/07/24 22:57:07;;;;;;;1.77;1.10;;;18.50;99.90;;;;;;6245835;22;20205;-77
2021/07/24 22:59:34;;;;;;;2.10;1.30;;;18.40;99.90;;;;;;6246150;23;20175;-76
2021/07/24 23:02:00;;;;;;;1.60;1.10;;;18.40;99.90;;;;;;6246438;23;20176;-76
2021/07/24 23:04:27;;;;;;;5.07;1.27;;;18.40;99.90;;;;;;6246140;23;20207;-76
2021/07/24 23:06:54;;;;;;;3.00;1.30;;;18.40;99.90;;;;;;6246016;22;20176;-76
2021/07/24 23:09:21;;;;;;;3.90;1.20;;;18.30;99.90;;;;;;6246708;23;21104;-77
2021/07/24 23:11:48;;;;;;;2.03;1.30;;;18.30;99.90;;;;;;6245957;23;20187;-76
2021/07/24 23:14:16;;;;;;;4.10;1.50;;;18.20;99.90;;;;;;6245946;23;20182;-76
2021/07/24 23:16:43;;;;;;;1.87;1.10;;;18.20;99.90;;;;;;6246255;23;20176;-76
2021/07/24 23:19:10;;;;;;;2.50;1.60;;;18.10;99.90;;;;;;6245908;23;20180;-77
2021/07/24 23:21:37;;;;;;;4.73;1.40;;;18.10;99.90;;;;;;6245126;23;20184;-76
2021/07/24 23:24:04;;;;;;;3.20;1.60;;;18.10;99.90;;;;;;6245535;23;20175;-76
2021/07/24 23:26:31;;;;;;;5.80;1.83;;;18.00;99.90;;;;;;6245695;23;20622;-77
2021/07/24 23:28:58;;;;;;;3.00;1.80;;;18.00;99.90;;;;;;6245576;22;20210;-76
2021/07/24 23:31:26;;;;;;;2.47;1.37;;;18.00;99.90;;;;;;6245825;23;20180;-76
2021/07/24 23:33:53;;;;;;;3.07;1.40;;;18.10;99.90;;;;;;6245236;23;20176;-76
2021/07/24 23:36:19;;;;;;;2.83;1.40;;;18.10;99.90;;;;;;6245859;23;20180;-76
2021/07/24 23:38:46;;;;;;;4.17;1.40;;;18.10;99.90;;;;;;6245946;22;20195;-76
2021/07/24 23:41:13;;;;;;;3.17;1.80;;;18.10;99.90;;;;;;6245607;23;20176;-76
2021/07/24 23:43:40;;;;;;;3.80;1.60;;;18.10;99.90;;;;;;6245767;23;20182;-76
2021/07/24 23:46:07;;;;;;;3.80;1.80;;;18.00;99.90;;;;;;6245619;23;20203;-77
2021/07/24 23:48:35;;;;;;;2.47;1.70;;;18.10;99.90;;;;;;6245486;22;20206;-77
2021/07/24 23:51:02;;;;;;;1.87;1.43;;;18.10;99.90;;;;;;6247168;23;20179;-77
2021/07/24 23:53:29;;;;;;;2.13;1.17;;;18.10;99.90;;;;;;6251355;23;20179;-76
2021/07/24 23:55:56;;;;;;;2.33;1.40;;;18.10;99.90;;;;;;6251965;23;20175;-75
2021/07/24 23:58:23;;;;;;;3.27;1.83;;;18.30;99.90;;;;;;6250935;22;20206;-76
